Portada
METAR-TAF:

METAR-TAF

Aeroports :

Waddington, Anglaterra

latitud: 53-10N, longitud: 000-31W, altitud: 68 m

Observació

L'informe es va fer fa 49 minuts, a les 20:50 UTC
Vent 3 kt del Oest
Temperatura 18°C
Humitat 37%
Pressió 1033 hPa
Visibilitat 10 km o més

METAR: EGXW 252050Z AUTO 26003KT 9999 NCD 18/03 Q1033 RERA

Hora: 22:39 (21:39 UTC)


TAF: manca

Observacions i pronòstics meteorològics de més de 4000 aeroports (METAR i TAF).

Les estacions disponibles són els punts grocs i vermells al mapa.

Posi el ratolí al punt desitjat per veure el nom de l'estació.

Feu clic per veure les observacions i els pronòstics meteorològics.

Per canviar el mapa: feu clic els botons verds amb una creu de color negre per apropar; al botó verd amb un guió per allunyar la imatge; o en les fletxes verdes per a mapes adjacents.


METAR-TAF: